Time;durP1;ratioP1;P1;durP2;ratioP2;P2;SDS_P1;SDS_P2;PMS_P1;PMS_P2;Temp;Humidity;BMP_temperature;BMP_pressure;BME280_temperature;BME280_humidity;BME280_pressure;Samples;Min_cycle;Max_cycle;Signal;HPM_P1;HPM_P2
2022/06/10 00:00:59;;;;;;;8.15;2.20;;;18.20;60.90;;;;;;6229229;23;20180;-87
2022/06/10 00:03:25;;;;;;;7.40;2.30;;;18.30;60.80;;;;;;6228085;23;20533;-88
2022/06/10 00:05:57;;;;;;;6.85;1.98;;;18.20;60.90;;;;;;6221396;23;20156;-87
2022/06/10 00:08:29;;;;;;;9.02;2.83;;;18.10;61.80;;;;;;6250234;23;20145;-88
2022/06/10 00:10:57;;;;;;;6.32;2.17;;;18.10;62.20;;;;;;6226396;23;20196;-89
2022/06/10 00:13:26;;;;;;;8.77;2.05;;;18.10;62.80;;;;;;6232689;23;20163;-88
2022/06/10 00:15:54;;;;;;;5.60;2.10;;;18.10;62.30;;;;;;6259709;23;20231;-89
2022/06/10 00:18:20;;;;;;;3.88;1.65;;;18.10;62.20;;;;;;6229530;23;20562;-89
2022/06/10 00:20:46;;;;;;;8.48;2.45;;;18.20;62.20;;;;;;6225798;23;20172;-88
2022/06/10 00:23:12;;;;;;;9.53;2.47;;;18.30;61.50;;;;;;6226986;23;20202;-88
2022/06/10 00:25:39;;;;;;;8.82;2.72;;;18.30;61.20;;;;;;6227334;23;20474;-88
2022/06/10 00:28:06;;;;;;;4.65;2.50;;;18.20;61.60;;;;;;6226676;23;20199;-88
2022/06/10 00:30:32;;;;;;;6.65;2.80;;;18.20;61.70;;;;;;6224110;23;20176;-88
2022/06/10 00:32:59;;;;;;;9.40;2.17;;;18.30;61.70;;;;;;6224623;23;20541;-88
2022/06/10 00:35:26;;;;;;;9.27;2.20;;;18.20;61.80;;;;;;6227786;23;20156;-88
2022/06/10 00:37:52;;;;;;;6.93;2.95;;;18.20;62.30;;;;;;6238846;23;20215;-88
2022/06/10 00:40:23;;;;;;;6.80;2.15;;;18.20;61.60;;;;;;6235517;23;20246;-88
2022/06/10 00:42:50;;;;;;;6.63;2.95;;;18.20;62.10;;;;;;6222334;23;20488;-89
2022/06/10 00:46:04;;;;;;;7.78;2.40;;;18.20;62.20;;;;;;6223285;23;20229;-88
2022/06/10 00:48:39;;;;;;;5.00;2.40;;;18.10;62.50;;;;;;6206247;23;20161;-88
2022/06/10 00:51:19;;;;;;;5.70;2.30;;;18.10;63.20;;;;;;6253139;22;20167;-87
2022/06/10 00:53:52;;;;;;;4.82;2.30;;;18.10;63.40;;;;;;6250106;23;20144;-88
2022/06/10 00:56:22;;;;;;;5.60;2.13;;;18.10;63.20;;;;;;6221185;23;20141;-88
2022/06/10 00:58:53;;;;;;;6.53;2.60;;;18.10;63.10;;;;;;6221018;23;20429;-88
2022/06/10 01:01:20;;;;;;;6.15;2.53;;;18.10;63.00;;;;;;6221719;23;20576;-87
2022/06/10 01:03:48;;;;;;;5.43;2.92;;;18.10;63.10;;;;;;6247478;23;20153;-88
2022/06/10 01:06:13;;;;;;;7.50;2.60;;;18.20;62.90;;;;;;6220850;23;20159;-89
2022/06/10 01:08:41;;;;;;;9.07;2.50;;;18.10;63.40;;;;;;6221858;23;20495;-88
2022/06/10 01:11:21;;;;;;;7.20;2.42;;;18.10;63.60;;;;;;6220912;23;20188;-88
2022/06/10 01:14:05;;;;;;;9.35;2.50;;;18.10;63.30;;;;;;6221620;23;20144;-89
2022/06/10 01:16:56;;;;;;;9.13;2.53;;;18.20;63.30;;;;;;6247662;23;20619;-88
2022/06/10 01:19:48;;;;;;;6.57;2.15;;;18.20;63.20;;;;;;6220714;23;20172;-88
2022/06/10 01:22:37;;;;;;;7.28;2.22;;;18.20;63.30;;;;;;6224776;23;20145;-89
2022/06/10 01:25:37;;;;;;;5.43;2.60;;;18.10;63.20;;;;;;6179590;23;20594;-88
2022/06/10 01:28:21;;;;;;;12.77;2.75;;;18.10;63.50;;;;;;6176563;23;20157;-88
2022/06/10 01:31:12;;;;;;;4.95;1.98;;;18.20;63.40;;;;;;6224802;23;20562;-88
2022/06/10 01:33:56;;;;;;;7.13;1.92;;;18.10;63.60;;;;;;6255311;23;20144;-87
2022/06/10 01:36:49;;;;;;;7.72;2.65;;;18.00;64.20;;;;;;6254630;23;20427;-87
2022/06/10 01:39:33;;;;;;;8.65;2.00;;;18.00;64.90;;;;;;6200668;22;20187;-89
2022/06/10 01:42:20;;;;;;;3.47;1.83;;;18.00;65.10;;;;;;6222514;23;20247;-87
2022/06/10 01:44:52;;;;;;;6.22;2.38;;;18.00;64.90;;;;;;6225924;23;20202;-89
2022/06/10 01:47:38;;;;;;;9.65;2.75;;;18.00;64.90;;;;;;6227244;23;20606;-88
2022/06/10 01:50:21;;;;;;;6.22;2.35;;;18.00;65.50;;;;;;6256683;22;20203;-88
2022/06/10 01:52:56;;;;;;;13.00;2.45;;;18.10;65.40;;;;;;6249130;23;20620;-88
2022/06/10 01:55:33;;;;;;;6.78;2.08;;;18.00;65.80;;;;;;6224456;23;20159;-88
2022/06/10 01:58:23;;;;;;;11.75;2.78;;;18.00;66.50;;;;;;6223574;23;20641;-88
2022/06/10 02:00:53;;;;;;;7.63;2.65;;;17.90;67.50;;;;;;6221171;23;20516;-88
2022/06/10 02:03:28;;;;;;;7.88;2.40;;;17.90;67.10;;;;;;6223155;23;20591;-88
2022/06/10 02:06:00;;;;;;;10.00;2.55;;;17.90;67.00;;;;;;6224718;23;20145;-88
2022/06/10 02:08:43;;;;;;;6.47;2.33;;;17.90;67.20;;;;;;6224240;23;20176;-88
2022/06/10 02:11:18;;;;;;;8.80;2.88;;;18.10;66.10;;;;;;6229794;23;20516;-87
2022/06/10 02:14:04;;;;;;;12.48;2.60;;;18.10;66.00;;;;;;6230005;23;20144;-88
2022/06/10 02:16:33;;;;;;;4.50;2.42;;;18.00;66.10;;;;;;6225975;23;20208;-89
2022/06/10 02:19:09;;;;;;;6.30;2.50;;;18.00;67.40;;;;;;6226323;22;20160;-89
2022/06/10 02:21:56;;;;;;;6.75;2.10;;;18.00;66.60;;;;;;6227702;23;20438;-89
2022/06/10 02:24:28;;;;;;;7.95;2.80;;;18.00;66.90;;;;;;6252211;23;20143;-89
2022/06/10 02:27:02;;;;;;;8.93;3.10;;;18.10;66.50;;;;;;6225051;23;20171;-89
2022/06/10 02:29:34;;;;;;;9.95;2.75;;;18.00;66.20;;;;;;6225995;23;20218;-89
2022/06/10 02:32:01;;;;;;;7.13;2.67;;;18.10;66.40;;;;;;6252423;23;20137;-88
2022/06/10 02:34:28;;;;;;;4.90;2.90;;;18.10;66.10;;;;;;6226597;23;20156;-89
2022/06/10 02:37:17;;;;;;;6.53;2.75;;;18.00;66.70;;;;;;6226497;23;20812;-89
2022/06/10 02:39:56;;;;;;;14.65;2.95;;;18.00;67.80;;;;;;6233811;23;20550;-89
2022/06/10 02:42:42;;;;;;;6.60;2.50;;;18.10;67.10;;;;;;6234447;23;20160;-89
2022/06/10 02:45:26;;;;;;;6.35;2.30;;;18.10;66.50;;;;;;6258404;23;20137;-88
2022/06/10 02:48:11;;;;;;;5.05;2.40;;;18.10;66.20;;;;;;6226835;23;20159;-89
2022/06/10 02:50:38;;;;;;;5.22;2.42;;;18.00;67.20;;;;;;6252952;22;20195;-89
2022/06/10 02:53:05;;;;;;;9.55;2.70;;;17.90;68.40;;;;;;6224623;23;20167;-89
2022/06/10 02:55:31;;;;;;;7.10;2.35;;;17.90;68.60;;;;;;6227188;23;20160;-89
2022/06/10 03:04:05;;;;;;;6.20;2.58;;;17.90;69.20;;;;;;6265748;23;20167;-89
2022/06/10 03:06:45;;;;;;;12.45;3.00;;;18.00;68.60;;;;;;6241175;23;20171;-88
2022/06/10 03:09:29;;;;;;;7.40;2.35;;;18.10;67.70;;;;;;6241511;22;20171;-89
2022/06/10 03:12:06;;;;;;;7.47;2.90;;;18.10;67.20;;;;;;6202269;23;20141;-88
2022/06/10 03:14:59;;;;;;;5.57;2.72;;;18.20;66.90;;;;;;6226672;23;20201;-89
2022/06/10 03:17:33;;;;;;;5.95;2.10;;;18.20;66.70;;;;;;6225983;23;20180;-89
2022/06/10 03:20:25;;;;;;;9.73;3.13;;;18.20;66.40;;;;;;6225064;23;20316;-88
2022/06/10 03:23:22;;;;;;;7.30;2.58;;;18.20;66.50;;;;;;6225276;23;20172;-89
2022/06/10 03:26:13;;;;;;;7.50;2.38;;;18.10;67.10;;;;;;6184909;23;20156;-89
2022/06/10 03:29:24;;;;;;;9.85;2.55;;;18.10;67.40;;;;;;6224503;23;20171;-89
2022/06/10 03:32:06;;;;;;;7.80;2.70;;;18.20;66.90;;;;;;6215453;23;20153;-88
2022/06/10 03:34:35;;;;;;;8.88;2.45;;;18.20;66.70;;;;;;6225710;23;20149;-88
2022/06/10 03:37:03;;;;;;;9.27;2.65;;;18.10;66.90;;;;;;6226374;23;20267;-88
2022/06/10 03:39:29;;;;;;;5.95;2.60;;;18.10;67.00;;;;;;6226870;23;20172;-89
2022/06/10 03:41:57;;;;;;;6.83;2.40;;;18.10;67.40;;;;;;6224478;23;20230;-89
2022/06/10 03:44:24;;;;;;;6.03;2.47;;;18.10;67.00;;;;;;6249688;23;20458;-89
2022/06/10 03:46:52;;;;;;;5.78;2.70;;;18.00;67.30;;;;;;6221901;23;20157;-89
2022/06/10 03:49:23;;;;;;;4.93;2.53;;;18.00;67.00;;;;;;6222462;23;20203;-89
2022/06/10 03:51:52;;;;;;;7.20;2.83;;;18.00;67.30;;;;;;6227187;23;20159;-89
2022/06/10 03:54:19;;;;;;;7.68;2.90;;;18.00;67.50;;;;;;6199539;23;20156;-88
2022/06/10 03:56:46;;;;;;;7.47;2.67;;;18.10;67.20;;;;;;6223538;23;20626;-88
2022/06/10 03:59:12;;;;;;;10.00;2.35;;;18.10;67.10;;;;;;6223741;22;20160;-89
2022/06/10 04:01:38;;;;;;;8.93;2.78;;;18.10;67.20;;;;;;6223640;23;20216;-89
2022/06/10 04:04:04;;;;;;;5.63;2.67;;;18.10;67.10;;;;;;6224798;23;20153;-88
2022/06/10 04:06:31;;;;;;;7.68;2.72;;;18.10;67.10;;;;;;6251840;23;20622;-88
2022/06/10 04:08:57;;;;;;;8.07;2.70;;;18.10;67.50;;;;;;6225135;22;20153;-87
2022/06/10 04:11:23;;;;;;;8.70;3.42;;;18.10;67.30;;;;;;6225619;23;20151;-89
2022/06/10 04:13:49;;;;;;;6.10;2.53;;;18.10;67.10;;;;;;6253437;23;20153;-87
2022/06/10 04:16:14;;;;;;;5.00;2.37;;;18.10;67.20;;;;;;6226658;23;20857;-87
2022/06/10 04:18:40;;;;;;;7.50;2.50;;;18.10;67.20;;;;;;6233332;23;20396;-88
2022/06/10 04:21:06;;;;;;;7.30;3.13;;;18.10;67.10;;;;;;6231112;23;20176;-88
2022/06/10 04:23:32;;;;;;;9.37;3.17;;;18.00;67.40;;;;;;6226876;23;20157;-87
2022/06/10 04:25:58;;;;;;;10.23;3.20;;;18.10;67.10;;;;;;6228221;23;20239;-87
2022/06/10 04:28:24;;;;;;;5.20;3.10;;;18.10;67.40;;;;;;6225703;23;20384;-88
2022/06/10 04:30:51;;;;;;;9.43;3.30;;;18.10;67.20;;;;;;6247585;22;20490;-87
2022/06/10 04:33:19;;;;;;;9.68;3.33;;;18.10;67.00;;;;;;6225400;23;20445;-87
2022/06/10 04:35:46;;;;;;;8.60;3.40;;;18.10;67.20;;;;;;6225365;23;20159;-88
2022/06/10 04:38:14;;;;;;;10.15;3.92;;;18.10;67.10;;;;;;6252624;23;20191;-87
2022/06/10 04:40:41;;;;;;;8.55;3.50;;;18.10;67.50;;;;;;6226209;23;20200;-87
2022/06/10 04:43:08;;;;;;;4.82;2.83;;;18.10;67.10;;;;;;6225987;23;20203;-87
2022/06/10 04:45:40;;;;;;;10.75;3.78;;;18.10;67.20;;;;;;6225024;23;20160;-87
2022/06/10 04:48:07;;;;;;;7.25;3.80;;;18.10;67.10;;;;;;6226760;23;20226;-88
2022/06/10 04:50:32;;;;;;;9.55;3.83;;;18.10;67.20;;;;;;6226949;23;20186;-87
2022/06/10 04:52:58;;;;;;;9.37;4.07;;;18.10;67.60;;;;;;6224448;23;20184;-88
2022/06/10 04:55:27;;;;;;;7.90;3.10;;;18.10;67.80;;;;;;6223969;23;20510;-88
2022/06/10 04:57:54;;;;;;;9.90;4.07;;;18.10;68.20;;;;;;6223675;23;20184;-88
2022/06/10 05:00:37;;;;;;;6.40;3.90;;;18.20;68.30;;;;;;6224315;23;20518;-88
2022/06/10 05:03:06;;;;;;;8.05;4.05;;;18.20;67.90;;;;;;6226455;23;20149;-88
2022/06/10 05:05:32;;;;;;;7.45;3.38;;;18.20;67.80;;;;;;6223854;23;20153;-87
2022/06/10 05:07:59;;;;;;;10.88;4.38;;;18.20;67.80;;;;;;6227055;23;20583;-88
2022/06/10 05:10:26;;;;;;;9.32;3.40;;;18.30;67.70;;;;;;6231796;23;20223;-87
2022/06/10 05:12:51;;;;;;;8.13;4.28;;;18.30;68.00;;;;;;6226684;23;20172;-88
2022/06/10 05:15:21;;;;;;;6.33;3.37;;;18.30;68.00;;;;;;6222227;23;20518;-87
2022/06/10 05:17:48;;;;;;;9.10;4.13;;;18.30;68.20;;;;;;6221977;23;20215;-88
2022/06/10 05:20:20;;;;;;;12.38;4.72;;;18.40;68.00;;;;;;6250766;22;20180;-88
2022/06/10 05:22:46;;;;;;;15.30;5.38;;;18.40;67.80;;;;;;6223384;23;20156;-87
2022/06/10 05:25:12;;;;;;;9.20;3.70;;;18.40;67.60;;;;;;6248718;23;20144;-88
2022/06/10 05:27:38;;;;;;;11.48;5.05;;;18.40;67.90;;;;;;6222732;23;20617;-87
2022/06/10 05:30:06;;;;;;;10.07;4.10;;;18.40;68.00;;;;;;6222383;23;20180;-87
2022/06/10 05:32:34;;;;;;;12.27;4.97;;;18.40;67.60;;;;;;6224917;23;20160;-87
2022/06/10 05:35:02;;;;;;;7.55;4.82;;;18.30;67.60;;;;;;6227351;23;20168;-87
2022/06/10 05:37:28;;;;;;;8.82;4.30;;;18.30;67.70;;;;;;6224444;23;20172;-87
2022/06/10 05:39:55;;;;;;;8.87;4.20;;;18.40;68.00;;;;;;6198251;23;20184;-87
2022/06/10 05:42:29;;;;;;;9.77;3.80;;;18.30;68.30;;;;;;6249646;23;20366;-88
2022/06/10 05:44:57;;;;;;;9.15;4.22;;;18.30;67.80;;;;;;6225624;23;20148;-87
2022/06/10 05:47:26;;;;;;;13.95;3.97;;;18.40;68.10;;;;;;6224066;23;20160;-87
2022/06/10 05:49:55;;;;;;;7.65;4.50;;;18.40;68.20;;;;;;6225215;23;20180;-88
2022/06/10 05:52:24;;;;;;;9.40;3.50;;;18.40;67.30;;;;;;6225120;23;20303;-89
2022/06/10 05:54:51;;;;;;;6.10;3.08;;;18.50;67.10;;;;;;6226553;23;20156;-88
2022/06/10 05:57:17;;;;;;;8.52;3.25;;;18.40;66.90;;;;;;6222423;23;20218;-88
2022/06/10 05:59:44;;;;;;;7.38;3.17;;;18.50;66.70;;;;;;6223663;23;20259;-88
2022/06/10 06:02:11;;;;;;;7.68;2.80;;;18.50;66.90;;;;;;6226884;23;20240;-88
2022/06/10 06:04:37;;;;;;;6.97;2.60;;;18.60;67.00;;;;;;6225139;23;20207;-88
2022/06/10 06:07:04;;;;;;;6.43;2.70;;;18.60;66.60;;;;;;6228073;23;20183;-88
2022/06/10 06:09:29;;;;;;;8.00;3.10;;;18.70;66.60;;;;;;6224615;23;20251;-88
2022/06/10 06:11:57;;;;;;;6.27;2.77;;;18.70;66.10;;;;;;6249100;23;20579;-87
2022/06/10 06:14:25;;;;;;;7.70;2.42;;;18.80;65.80;;;;;;6223235;23;20168;-87
2022/06/10 06:17:00;;;;;;;7.95;2.78;;;18.70;65.90;;;;;;6252778;23;20239;-87
2022/06/10 06:19:28;;;;;;;8.23;2.50;;;18.80;66.10;;;;;;6252986;22;20246;-87
2022/06/10 06:21:53;;;;;;;8.10;2.78;;;18.80;65.90;;;;;;6229603;23;20183;-88
2022/06/10 06:24:19;;;;;;;8.30;2.63;;;18.80;65.90;;;;;;6254408;23;20153;-88
2022/06/10 06:26:45;;;;;;;6.90;2.73;;;18.80;65.70;;;;;;6223769;23;20160;-89
2022/06/10 06:29:11;;;;;;;6.70;2.37;;;18.90;65.60;;;;;;6225836;22;20570;-87
2022/06/10 06:31:37;;;;;;;10.60;3.07;;;18.90;65.50;;;;;;6224663;23;20157;-88
2022/06/10 06:34:04;;;;;;;9.30;3.28;;;19.00;65.30;;;;;;6221579;23;21011;-87
2022/06/10 06:36:37;;;;;;;9.50;2.67;;;19.00;65.00;;;;;;6221721;23;20163;-87
2022/06/10 06:39:04;;;;;;;16.58;3.08;;;19.00;65.10;;;;;;6221663;22;20258;-87
2022/06/10 06:41:30;;;;;;;3.90;2.20;;;19.10;65.20;;;;;;6248297;23;20496;-86
2022/06/10 06:43:56;;;;;;;5.53;2.23;;;19.10;64.80;;;;;;6196171;23;20156;-88
2022/06/10 06:46:22;;;;;;;6.33;2.77;;;19.00;65.00;;;;;;6220528;23;20884;-87
2022/06/10 06:48:47;;;;;;;5.73;2.40;;;19.10;64.90;;;;;;6247890;23;20372;-87
2022/06/10 06:51:15;;;;;;;9.47;2.80;;;19.10;65.20;;;;;;6220389;23;20180;-87
2022/06/10 06:53:41;;;;;;;5.40;2.85;;;19.10;65.20;;;;;;6247878;23;20402;-87
2022/06/10 06:56:07;;;;;;;5.15;2.60;;;19.00;66.10;;;;;;6224183;23;20160;-87
2022/06/10 06:58:33;;;;;;;4.60;2.27;;;19.10;65.50;;;;;;6226549;23;20184;-88
2022/06/10 07:00:58;;;;;;;6.20;2.33;;;19.20;64.40;;;;;;6232104;23;20240;-86
2022/06/10 07:03:25;;;;;;;5.73;2.30;;;19.20;64.40;;;;;;6233504;23;20418;-88
2022/06/10 07:05:52;;;;;;;6.97;2.53;;;19.30;64.10;;;;;;6226711;23;20395;-87
2022/06/10 07:08:18;;;;;;;5.03;2.20;;;19.20;64.40;;;;;;6229803;23;20157;-86
2022/06/10 07:10:44;;;;;;;9.45;2.47;;;19.20;65.50;;;;;;6263832;22;20529;-87
2022/06/10 07:13:10;;;;;;;6.07;2.60;;;19.30;64.50;;;;;;6235590;23;20172;-87
2022/06/10 07:15:40;;;;;;;10.07;2.80;;;19.40;63.90;;;;;;6232288;23;20160;-87
2022/06/10 07:18:06;;;;;;;15.30;3.00;;;19.30;64.60;;;;;;6247344;23;20202;-87
2022/06/10 07:20:35;;;;;;;6.18;2.47;;;19.40;65.00;;;;;;6248153;22;20196;-88
2022/06/10 07:23:01;;;;;;;9.80;2.67;;;19.50;63.80;;;;;;6221057;23;20165;-88
2022/06/10 07:25:29;;;;;;;6.17;2.70;;;19.50;64.30;;;;;;6247359;23;20141;-88
2022/06/10 07:27:55;;;;;;;9.13;2.30;;;19.60;63.20;;;;;;6219920;23;20787;-87
2022/06/10 07:30:25;;;;;;;6.07;2.90;;;19.80;63.00;;;;;;6247598;22;20944;-88
2022/06/10 07:32:51;;;;;;;8.30;3.13;;;19.80;63.50;;;;;;6220426;23;20398;-88
2022/06/10 07:35:18;;;;;;;7.60;2.83;;;19.90;63.40;;;;;;6247350;23;20383;-88
2022/06/10 07:37:45;;;;;;;8.53;2.50;;;20.00;63.40;;;;;;6248029;23;20207;-88
2022/06/10 07:43:02;;;;;;;6.60;2.20;;;20.30;61.50;;;;;;6253111;23;20709;-88
2022/06/10 07:45:28;;;;;;;5.33;2.70;;;20.50;61.20;;;;;;6250263;23;20399;-87
2022/06/10 07:47:54;;;;;;;5.73;2.43;;;20.70;60.00;;;;;;6221687;23;20441;-87
2022/06/10 07:50:21;;;;;;;9.50;2.70;;;20.70;61.00;;;;;;6263219;22;20179;-87
2022/06/10 07:52:48;;;;;;;6.57;2.97;;;20.80;60.20;;;;;;6211834;23;20395;-88
2022/06/10 07:55:13;;;;;;;4.30;2.20;;;20.80;60.60;;;;;;6262170;23;20375;-87
2022/06/10 07:57:39;;;;;;;4.40;2.47;;;20.90;60.10;;;;;;6263243;23;20505;-88
2022/06/10 08:00:06;;;;;;;11.50;2.97;;;21.10;58.80;;;;;;6263382;22;20398;-87
2022/06/10 08:02:32;;;;;;;8.03;2.93;;;21.20;58.70;;;;;;6197063;23;20161;-87
2022/06/10 08:04:57;;;;;;;7.43;3.03;;;21.40;58.40;;;;;;6247202;23;20429;-88
2022/06/10 08:07:23;;;;;;;7.03;3.43;;;21.60;57.50;;;;;;6219787;23;20190;-88
2022/06/10 08:09:49;;;;;;;5.67;2.20;;;21.60;58.30;;;;;;6219348;23;20705;-87
2022/06/10 08:12:15;;;;;;;4.80;2.50;;;21.50;59.30;;;;;;6219689;23;20204;-87
2022/06/10 08:14:40;;;;;;;9.47;3.40;;;21.70;58.50;;;;;;6246557;23;20383;-88
2022/06/10 08:17:07;;;;;;;11.13;2.83;;;21.80;59.10;;;;;;6219267;23;20267;-87
2022/06/10 08:19:33;;;;;;;6.13;2.47;;;22.10;58.70;;;;;;6220156;23;20231;-88
2022/06/10 08:24:43;;;;;;;7.77;2.40;;;22.80;54.40;;;;;;6246034;23;20401;-88
2022/06/10 08:27:09;;;;;;;4.67;2.77;;;22.90;55.20;;;;;;6220338;23;20392;-88
2022/06/10 08:29:35;;;;;;;5.93;2.47;;;22.70;56.60;;;;;;6221118;23;20442;-88
2022/06/10 08:32:00;;;;;;;7.60;2.73;;;22.90;55.20;;;;;;6221185;23;20603;-88
2022/06/10 08:34:26;;;;;;;8.73;2.97;;;23.00;54.50;;;;;;6170904;23;20251;-88
2022/06/10 08:36:51;;;;;;;6.23;3.10;;;23.00;54.80;;;;;;6220217;23;20263;-88
2022/06/10 08:39:21;;;;;;;8.37;3.33;;;23.00;56.40;;;;;;6219625;22;20517;-88
2022/06/10 08:42:20;;;;;;;4.43;2.30;;;22.90;56.40;;;;;;6246450;23;20149;-88
2022/06/10 08:44:55;;;;;;;5.10;3.07;;;22.80;57.40;;;;;;6220118;23;20382;-88
2022/06/10 08:47:21;;;;;;;6.90;2.40;;;23.20;54.80;;;;;;6220084;23;20869;-87
2022/06/10 08:50:07;;;;;;;4.30;2.30;;;23.40;53.60;;;;;;6220169;23;20417;-88
2022/06/10 08:52:46;;;;;;;4.70;2.83;;;23.40;54.80;;;;;;6219741;23;20149;-88
2022/06/10 08:55:27;;;;;;;6.13;2.20;;;23.40;53.80;;;;;;6246437;23;20374;-88
2022/06/10 08:57:55;;;;;;;7.23;2.43;;;23.40;55.30;;;;;;6247862;23;20423;-88
2022/06/10 09:00:33;;;;;;;8.37;2.80;;;23.40;55.90;;;;;;6221528;23;20408;-88
2022/06/10 09:03:04;;;;;;;4.60;2.53;;;23.60;53.50;;;;;;6219898;23;20379;-88
2022/06/10 09:05:33;;;;;;;6.73;2.27;;;23.50;54.60;;;;;;6246168;23;20374;-87
2022/06/10 09:08:02;;;;;;;8.07;2.80;;;23.50;54.60;;;;;;6218620;23;20864;-88
2022/06/10 09:10:38;;;;;;;4.13;2.20;;;23.50;56.10;;;;;;6218918;23;20427;-87
2022/06/10 09:13:04;;;;;;;5.63;2.90;;;23.80;53.60;;;;;;6245784;23;20776;-87
2022/06/10 09:15:31;;;;;;;6.27;2.73;;;23.80;54.20;;;;;;6219130;23;20391;-88
2022/06/10 09:18:04;;;;;;;2.70;1.87;;;23.90;54.50;;;;;;6246460;23;20855;-88
2022/06/10 09:21:07;;;;;;;8.03;2.70;;;24.10;53.90;;;;;;6246816;22;20410;-88
2022/06/10 09:23:39;;;;;;;6.50;2.63;;;24.20;52.80;;;;;;6220442;23;20378;-88
2022/06/10 09:26:10;;;;;;;4.60;2.53;;;24.10;52.40;;;;;;6247287;23;20367;-88
2022/06/10 09:28:38;;;;;;;5.80;2.47;;;23.80;54.80;;;;;;6220059;23;20379;-88
2022/06/10 09:31:38;;;;;;;6.50;2.67;;;23.30;56.40;;;;;;6219864;23;20410;-89
2022/06/10 09:34:42;;;;;;;6.03;2.60;;;23.00;57.60;;;;;;6215527;23;20861;-89
2022/06/10 09:37:14;;;;;;;7.93;2.40;;;22.80;58.60;;;;;;6218634;23;20423;-89
2022/06/10 09:43:09;;;;;;;6.83;3.07;;;23.30;57.50;;;;;;6246365;23;20390;-88
2022/06/10 09:45:49;;;;;;;3.73;2.10;;;22.90;58.20;;;;;;6218968;23;20379;-89
2022/06/10 09:48:18;;;;;;;6.63;2.40;;;23.00;58.50;;;;;;6218729;23;20435;-88
2022/06/10 09:51:02;;;;;;;5.90;2.40;;;23.30;57.50;;;;;;6218197;23;20410;-89
2022/06/10 09:54:00;;;;;;;4.90;2.13;;;23.60;55.50;;;;;;6218233;23;20397;-89
2022/06/10 09:56:55;;;;;;;8.70;2.70;;;23.40;57.10;;;;;;6244924;23;20396;-89
2022/06/10 09:59:40;;;;;;;6.53;2.40;;;23.00;57.60;;;;;;6192895;23;20919;-89
2022/06/10 10:02:16;;;;;;;7.87;2.83;;;23.20;58.40;;;;;;6218080;23;20383;-89
2022/06/10 10:05:12;;;;;;;4.67;2.83;;;23.30;57.90;;;;;;6218252;23;20419;-89
2022/06/10 10:07:50;;;;;;;8.30;2.70;;;23.30;57.90;;;;;;6244532;23;20395;-88
2022/06/10 10:11:26;;;;;;;7.33;2.73;;;23.30;58.10;;;;;;6244542;22;20426;-89
2022/06/10 10:14:11;;;;;;;10.10;2.83;;;23.50;56.90;;;;;;6106388;23;20386;-88
2022/06/10 10:16:40;;;;;;;4.80;2.43;;;23.30;57.10;;;;;;6097802;23;20396;-88
2022/06/10 10:19:15;;;;;;;6.33;2.60;;;23.20;57.70;;;;;;6172652;22;20386;-89
2022/06/10 10:21:47;;;;;;;4.90;2.67;;;23.30;58.30;;;;;;6217960;23;20370;-88
2022/06/10 10:24:20;;;;;;;6.63;2.50;;;23.50;57.80;;;;;;6217937;23;20441;-88
2022/06/10 10:26:49;;;;;;;4.53;2.30;;;23.70;57.80;;;;;;6217886;23;20410;-89
2022/06/10 10:29:27;;;;;;;7.93;2.80;;;24.00;55.50;;;;;;6217858;22;20384;-87
2022/06/10 10:32:13;;;;;;;6.63;2.30;;;24.00;56.50;;;;;;6245325;23;20699;-88
2022/06/10 10:34:41;;;;;;;3.13;2.10;;;23.90;56.90;;;;;;6218428;23;20375;-89
2022/06/10 10:37:29;;;;;;;5.03;2.53;;;24.00;55.50;;;;;;6217993;23;20430;-89
2022/06/10 10:40:01;;;;;;;11.07;3.07;;;24.20;54.80;;;;;;6218084;23;20403;-88
2022/06/10 10:42:33;;;;;;;8.97;3.60;;;24.20;55.80;;;;;;6245793;23;20439;-88
2022/06/10 10:45:07;;;;;;;7.33;2.90;;;24.20;55.80;;;;;;6218241;23;20376;-89
2022/06/10 10:47:36;;;;;;;8.10;3.10;;;23.90;56.00;;;;;;6218703;23;20383;-88
2022/06/10 10:50:05;;;;;;;7.03;2.70;;;23.80;56.30;;;;;;6246585;22;20461;-87
2022/06/10 10:52:34;;;;;;;6.93;3.57;;;23.60;57.60;;;;;;6220317;23;20458;-87
2022/06/10 10:55:18;;;;;;;6.70;2.50;;;23.60;58.10;;;;;;6220441;23;20720;-88
2022/06/10 10:58:01;;;;;;;12.17;2.93;;;23.70;57.50;;;;;;6219548;23;20758;-88
2022/06/10 11:00:35;;;;;;;9.50;3.03;;;23.50;58.30;;;;;;6246567;22;20465;-88
2022/06/10 11:03:02;;;;;;;9.00;3.37;;;23.40;58.30;;;;;;6195974;23;20378;-88
2022/06/10 11:05:34;;;;;;;5.67;3.30;;;23.20;58.40;;;;;;6247239;23;20710;-88
2022/06/10 11:08:37;;;;;;;6.97;3.50;;;23.00;59.10;;;;;;6219901;23;20383;-89
2022/06/10 11:11:15;;;;;;;5.83;2.77;;;23.10;59.30;;;;;;6198799;23;20485;-88
2022/06/10 11:13:41;;;;;;;9.17;3.13;;;23.10;59.30;;;;;;6219561;23;20849;-88
2022/06/10 11:16:31;;;;;;;7.47;3.00;;;23.30;59.10;;;;;;6219944;23;20858;-88
2022/06/10 11:19:17;;;;;;;4.30;2.60;;;23.50;58.40;;;;;;6219315;22;20446;-88
2022/06/10 11:21:54;;;;;;;8.60;3.33;;;23.50;58.60;;;;;;6194856;23;20374;-88
2022/06/10 11:24:28;;;;;;;7.27;3.50;;;23.60;58.30;;;;;;6219743;23;20389;-88
2022/06/10 11:26:58;;;;;;;5.10;2.23;;;23.70;57.00;;;;;;6219525;23;20374;-89
2022/06/10 11:29:25;;;;;;;5.60;2.67;;;23.80;57.20;;;;;;6219799;23;20457;-88
2022/06/10 11:31:56;;;;;;;5.27;2.80;;;23.90;58.40;;;;;;6219878;23;20383;-88
2022/06/10 11:34:40;;;;;;;8.80;2.80;;;23.90;58.20;;;;;;6221793;23;20410;-88
2022/06/10 11:37:31;;;;;;;4.50;2.60;;;24.00;58.30;;;;;;6224201;23;20505;-87
2022/06/10 11:40:22;;;;;;;6.03;2.70;;;24.10;57.60;;;;;;6222335;23;20438;-88
2022/06/10 11:43:29;;;;;;;9.50;3.03;;;24.40;57.50;;;;;;6222239;23;20446;-88
2022/06/10 11:46:02;;;;;;;8.43;2.80;;;24.90;55.30;;;;;;6193093;23;20378;-88
2022/06/10 11:48:54;;;;;;;9.87;3.07;;;25.00;54.10;;;;;;6212440;23;20385;-88
2022/06/10 11:51:27;;;;;;;9.70;2.83;;;25.00;54.10;;;;;;6255031;22;20437;-88
2022/06/10 11:54:15;;;;;;;6.43;3.40;;;25.00;54.20;;;;;;6225148;23;20380;-89
2022/06/10 12:00:09;;;;;;;6.90;3.07;;;25.60;50.20;;;;;;6250057;22;20414;-88
2022/06/10 12:02:46;;;;;;;13.40;2.80;;;25.90;48.70;;;;;;6199737;23;20378;-88
2022/06/10 12:05:53;;;;;;;8.03;2.77;;;26.10;48.80;;;;;;6222445;23;20389;-89
2022/06/10 12:08:40;;;;;;;7.63;2.83;;;26.20;47.30;;;;;;6219223;23;20473;-88
2022/06/10 12:11:18;;;;;;;15.60;3.47;;;26.30;47.10;;;;;;6219588;23;20427;-89
2022/06/10 12:13:56;;;;;;;5.33;2.60;;;26.40;47.00;;;;;;6219732;23;20383;-89
2022/06/10 12:16:25;;;;;;;4.37;2.43;;;26.30;46.90;;;;;;6246470;23;20370;-89
2022/06/10 12:18:52;;;;;;;5.97;3.00;;;26.40;47.10;;;;;;6219319;23;20533;-89
2022/06/10 12:21:22;;;;;;;3.30;2.33;;;26.30;49.70;;;;;;6219260;23;20486;-89
2022/06/10 12:23:48;;;;;;;8.80;3.30;;;26.40;47.70;;;;;;6219260;23;21013;-89
2022/06/10 12:26:17;;;;;;;5.30;2.63;;;26.60;46.60;;;;;;6245922;23;20371;-89
2022/06/10 12:28:53;;;;;;;7.70;2.87;;;26.50;48.50;;;;;;6218949;23;20391;-89
2022/06/10 12:31:39;;;;;;;9.60;2.90;;;26.30;48.50;;;;;;6220058;23;20410;-89
2022/06/10 12:34:23;;;;;;;9.10;3.03;;;26.40;47.70;;;;;;6247141;23;20837;-88
2022/06/10 12:37:11;;;;;;;5.77;2.60;;;26.40;45.80;;;;;;6223668;23;20386;-88
2022/06/10 12:39:54;;;;;;;4.07;2.70;;;26.30;46.60;;;;;;6253679;22;20414;-88
2022/06/10 12:42:25;;;;;;;9.00;3.67;;;26.20;46.30;;;;;;6224576;23;20501;-88
2022/06/10 12:44:56;;;;;;;11.13;3.03;;;26.10;48.90;;;;;;6200605;23;20386;-88
2022/06/10 12:47:29;;;;;;;5.97;2.70;;;26.00;47.70;;;;;;6224782;23;20867;-88
2022/06/10 12:50:23;;;;;;;8.93;3.10;;;26.10;48.70;;;;;;6246015;22;20427;-89
2022/06/10 12:53:08;;;;;;;4.10;2.30;;;25.70;49.60;;;;;;6219896;23;20370;-88
2022/06/10 12:55:54;;;;;;;9.53;3.00;;;25.80;49.20;;;;;;6245656;23;20365;-89
2022/06/10 12:58:38;;;;;;;6.23;2.70;;;25.50;49.80;;;;;;6218706;23;20974;-89
2022/06/10 13:01:26;;;;;;;6.40;2.53;;;25.50;49.20;;;;;;6219082;23;20404;-88
2022/06/10 13:04:00;;;;;;;10.20;3.03;;;25.50;49.00;;;;;;6218935;23;20387;-88
2022/06/10 13:06:42;;;;;;;5.50;3.03;;;25.50;50.30;;;;;;6218968;23;20469;-88
2022/06/10 13:09:11;;;;;;;8.40;3.20;;;25.60;48.80;;;;;;6245566;22;20377;-89
2022/06/10 13:11:46;;;;;;;7.80;2.90;;;25.90;47.10;;;;;;6218909;23;20417;-88
2022/06/10 13:14:20;;;;;;;7.93;3.00;;;26.00;48.60;;;;;;6246332;23;20455;-88
2022/06/10 13:16:58;;;;;;;10.13;2.80;;;26.10;48.00;;;;;;6245762;23;20436;-88
2022/06/10 13:19:37;;;;;;;5.67;3.10;;;25.90;49.10;;;;;;6218873;23;20726;-89
2022/06/10 13:22:22;;;;;;;20.20;3.87;;;25.70;49.80;;;;;;6218954;23;20376;-88
2022/06/10 13:24:53;;;;;;;6.60;3.00;;;25.30;50.30;;;;;;6218940;23;20385;-89
2022/06/10 13:27:28;;;;;;;8.43;2.90;;;25.40;51.10;;;;;;6245531;23;20387;-89
2022/06/10 13:29:57;;;;;;;8.07;3.60;;;25.40;51.80;;;;;;6218573;23;20416;-88
2022/06/10 13:32:23;;;;;;;5.03;2.90;;;25.60;50.40;;;;;;6245349;23;20405;-89
2022/06/10 13:34:59;;;;;;;9.03;2.90;;;25.90;48.10;;;;;;6218394;23;20401;-89
2022/06/10 13:37:36;;;;;;;5.33;2.80;;;26.00;49.70;;;;;;6245358;23;20505;-89